createdAt,value
2022-12-31T00:01:03.545Z,12.17
2022-12-31T00:03:31.081Z,12.21
2022-12-31T00:05:58.662Z,12.10
2022-12-31T00:08:26.199Z,12.16
2022-12-31T00:10:55.445Z,12.25
2022-12-31T00:13:22.901Z,12.39
2022-12-31T00:15:50.373Z,12.33
2022-12-31T00:18:17.879Z,12.22
2022-12-31T00:20:45.331Z,12.25
2022-12-31T00:23:12.881Z,12.31
2022-12-31T00:25:40.309Z,12.31
2022-12-31T00:28:09.249Z,12.26
2022-12-31T00:30:37.460Z,12.26
2022-12-31T00:33:04.985Z,12.48
2022-12-31T00:35:34.580Z,12.32
2022-12-31T00:38:02.021Z,12.33
2022-12-31T00:40:29.696Z,12.24
2022-12-31T00:42:57.163Z,12.18
2022-12-31T00:45:26.067Z,12.06
2022-12-31T00:47:53.575Z,12.23
2022-12-31T00:50:21.125Z,12.06
2022-12-31T00:52:48.629Z,12.08
2022-12-31T00:55:16.375Z,12.03
2022-12-31T00:57:43.932Z,12.24
2022-12-31T01:00:12.838Z,12.04
2022-12-31T01:02:41.780Z,12.10
2022-12-31T01:05:09.776Z,12.09
2022-12-31T01:07:38.487Z,12.36
2022-12-31T01:10:07.044Z,12.18
2022-12-31T01:12:34.700Z,12.06
2022-12-31T01:15:02.219Z,12.19
2022-12-31T01:17:29.874Z,12.31
2022-12-31T01:19:58.672Z,12.23
2022-12-31T01:22:26.220Z,12.16
2022-12-31T01:24:53.757Z,12.06
2022-12-31T01:27:21.445Z,12.04
2022-12-31T01:29:49.028Z,12.11
2022-12-31T01:32:16.615Z,12.25
2022-12-31T01:34:44.159Z,12.29
2022-12-31T01:37:12.998Z,12.10
2022-12-31T01:39:40.508Z,12.15
2022-12-31T01:42:11.469Z,12.37
2022-12-31T01:44:49.942Z,12.29
2022-12-31T01:47:20.826Z,12.11
2022-12-31T01:49:50.813Z,12.25
2022-12-31T01:52:23.469Z,12.12
2022-12-31T01:54:54.537Z,12.14
2022-12-31T01:57:22.850Z,12.13
2022-12-31T01:59:50.928Z,12.18
2022-12-31T02:02:18.798Z,12.20
2022-12-31T02:04:46.761Z,12.39
2022-12-31T02:07:14.286Z,12.22
2022-12-31T02:09:43.703Z,12.17
2022-12-31T02:12:11.581Z,12.26
2022-12-31T02:14:41.239Z,12.34
2022-12-31T02:17:12.590Z,12.18
2022-12-31T02:20:12.062Z,12.39
2022-12-31T02:22:52.965Z,12.24
2022-12-31T02:25:34.774Z,12.40
2022-12-31T02:28:14.407Z,12.35
2022-12-31T02:30:44.399Z,12.40
2022-12-31T02:33:15.080Z,12.36
2022-12-31T02:35:47.853Z,12.53
2022-12-31T02:38:17.396Z,12.54
2022-12-31T02:40:45.501Z,12.49
2022-12-31T02:43:12.981Z,12.43
2022-12-31T02:45:44.117Z,12.61
2022-12-31T02:48:23.652Z,12.54
2022-12-31T02:50:59.409Z,12.60
2022-12-31T02:53:40.319Z,12.41
2022-12-31T02:56:11.394Z,12.40
2022-12-31T02:59:01.322Z,12.40
2022-12-31T03:01:51.865Z,12.45
2022-12-31T03:04:36.053Z,12.52
2022-12-31T03:07:05.075Z,12.54
2022-12-31T03:09:32.892Z,12.59
2022-12-31T03:12:18.100Z,12.58
2022-12-31T03:14:45.734Z,12.52
2022-12-31T03:17:14.605Z,12.59
2022-12-31T03:19:59.707Z,12.62
2022-12-31T03:22:30.290Z,12.53
2022-12-31T03:25:17.426Z,12.60
2022-12-31T03:27:46.417Z,12.63
2022-12-31T03:30:15.445Z,12.64
2022-12-31T03:32:45.213Z,12.73
2022-12-31T03:35:14.288Z,12.86
2022-12-31T03:37:42.588Z,12.86
2022-12-31T03:40:11.755Z,12.94
2022-12-31T03:42:39.272Z,13.01
2022-12-31T03:45:07.952Z,13.04
2022-12-31T03:47:35.622Z,13.16
2022-12-31T03:50:05.050Z,13.17
2022-12-31T03:52:32.511Z,13.24
2022-12-31T03:55:01.520Z,13.26
2022-12-31T03:57:29.407Z,13.33
2022-12-31T03:59:56.840Z,13.36
2022-12-31T04:02:28.872Z,13.34
2022-12-31T04:04:56.913Z,13.43
2022-12-31T04:07:25.822Z,13.47
2022-12-31T04:09:53.266Z,13.45
2022-12-31T04:12:20.783Z,13.62
2022-12-31T04:14:48.270Z,13.61
2022-12-31T04:17:15.773Z,13.62
2022-12-31T04:19:43.355Z,13.62
2022-12-31T04:22:11.872Z,13.51
2022-12-31T04:24:40.685Z,13.67
2022-12-31T04:27:08.289Z,13.69
2022-12-31T04:29:35.797Z,13.76
2022-12-31T04:32:04.546Z,13.52
2022-12-31T04:34:32.097Z,13.22
2022-12-31T04:36:59.611Z,13.05
2022-12-31T04:39:27.490Z,13.01
2022-12-31T04:41:56.278Z,12.99
2022-12-31T04:44:23.776Z,12.90
2022-12-31T04:46:52.311Z,12.93
2022-12-31T04:49:20.041Z,13.04
2022-12-31T04:51:48.074Z,13.16
2022-12-31T04:54:15.584Z,13.05
2022-12-31T04:56:43.049Z,13.15
2022-12-31T04:59:12.173Z,13.22
2022-12-31T05:01:40.310Z,13.31
2022-12-31T05:04:07.905Z,13.33
2022-12-31T05:06:35.451Z,13.23
2022-12-31T05:09:02.951Z,13.30
2022-12-31T05:11:30.433Z,12.96
2022-12-31T05:13:57.910Z,13.14
2022-12-31T05:16:26.756Z,13.26
2022-12-31T05:18:55.565Z,13.11
2022-12-31T05:21:23.190Z,13.15
2022-12-31T05:23:50.725Z,13.14
2022-12-31T05:26:18.699Z,12.90
2022-12-31T05:28:46.209Z,13.15
2022-12-31T05:31:13.824Z,13.29
2022-12-31T05:33:42.707Z,12.84
2022-12-31T05:36:10.292Z,13.09
2022-12-31T05:38:38.130Z,13.01
2022-12-31T05:41:08.173Z,13.07
2022-12-31T05:43:35.918Z,13.07
2022-12-31T05:46:04.793Z,13.15
2022-12-31T05:48:32.540Z,13.13
2022-12-31T05:51:01.322Z,13.22
2022-12-31T05:53:28.798Z,13.15
2022-12-31T05:55:56.284Z,13.23
2022-12-31T05:58:23.743Z,13.27
2022-12-31T06:00:52.546Z,13.25
2022-12-31T06:03:20.112Z,13.37
2022-12-31T06:05:47.671Z,13.37
2022-12-31T06:08:16.502Z,13.33
2022-12-31T06:10:43.982Z,13.38
2022-12-31T06:13:11.465Z,13.40
2022-12-31T06:15:40.333Z,13.24
2022-12-31T06:18:08.200Z,13.40
2022-12-31T06:20:37.344Z,13.33
2022-12-31T06:23:05.400Z,13.40
2022-12-31T06:25:36.878Z,13.46
2022-12-31T06:28:04.649Z,13.52
2022-12-31T06:30:32.358Z,13.57
2022-12-31T06:32:59.828Z,13.44
2022-12-31T06:35:27.294Z,13.70
2022-12-31T06:37:54.785Z,13.70
2022-12-31T06:40:22.268Z,13.69
2022-12-31T06:42:59.548Z,13.76
2022-12-31T06:45:28.143Z,13.81
2022-12-31T06:47:55.639Z,13.71
2022-12-31T06:50:23.101Z,13.91
2022-12-31T06:52:50.561Z,13.86
2022-12-31T06:55:18.653Z,13.98
2022-12-31T06:57:46.642Z,13.99
2022-12-31T07:00:16.934Z,14.07
2022-12-31T07:03:02.579Z,14.04
2022-12-31T07:05:40.338Z,14.04
2022-12-31T07:08:31.095Z,14.18
2022-12-31T07:11:03.940Z,14.41
2022-12-31T07:13:50.170Z,14.35
2022-12-31T07:16:35.628Z,14.34
2022-12-31T07:19:12.079Z,14.37
2022-12-31T07:21:41.568Z,14.54
2022-12-31T07:24:10.859Z,14.62
2022-12-31T07:26:57.211Z,14.59
2022-12-31T07:29:31.370Z,14.78
2022-12-31T07:32:05.589Z,14.80
2022-12-31T07:34:38.816Z,14.88
2022-12-31T07:37:09.194Z,14.92
2022-12-31T07:39:41.820Z,14.95
2022-12-31T07:42:15.197Z,14.94
2022-12-31T07:44:52.577Z,14.98
2022-12-31T07:47:24.124Z,14.99
2022-12-31T07:49:52.409Z,14.95
2022-12-31T07:52:21.179Z,15.06
2022-12-31T07:54:48.670Z,15.31
2022-12-31T07:57:18.484Z,15.28
2022-12-31T07:59:53.774Z,15.41
2022-12-31T08:02:35.033Z,15.50
2022-12-31T08:05:07.660Z,15.54
2022-12-31T08:07:38.295Z,15.62
2022-12-31T08:10:17.281Z,15.63
2022-12-31T08:12:46.712Z,15.72
2022-12-31T08:15:15.494Z,15.77
2022-12-31T08:17:44.920Z,15.87
2022-12-31T08:20:15.627Z,15.81
2022-12-31T08:23:08.211Z,15.83
2022-12-31T08:25:39.439Z,15.98
2022-12-31T08:28:13.111Z,15.79
2022-12-31T08:30:45.665Z,15.84
2022-12-31T08:33:20.480Z,15.93
2022-12-31T08:35:59.160Z,16.20
2022-12-31T08:38:31.800Z,16.02
2022-12-31T08:41:02.753Z,16.08
2022-12-31T08:43:50.287Z,16.02
2022-12-31T08:46:22.057Z,16.13
2022-12-31T08:51:02.416Z,16.25
2022-12-31T08:53:30.594Z,16.19
2022-12-31T08:56:03.829Z,16.31
2022-12-31T08:58:40.062Z,16.34
2022-12-31T09:01:08.295Z,16.36
2022-12-31T09:03:51.521Z,16.34
2022-12-31T09:06:26.445Z,16.25
2022-12-31T09:08:58.582Z,16.31
2022-12-31T09:11:30.880Z,16.37
2022-12-31T09:14:09.423Z,16.38
2022-12-31T09:16:46.449Z,16.43
2022-12-31T09:19:13.997Z,16.28
2022-12-31T09:21:44.268Z,16.38
2022-12-31T09:24:13.434Z,16.52
2022-12-31T09:26:47.958Z,16.48
2022-12-31T09:29:24.574Z,16.47
2022-12-31T09:31:56.533Z,16.43
2022-12-31T09:34:29.733Z,16.43
2022-12-31T09:37:02.011Z,16.36
2022-12-31T09:39:34.483Z,16.58
2022-12-31T09:42:19.608Z,16.41
2022-12-31T09:44:58.407Z,16.54
2022-12-31T09:47:50.352Z,16.59
2022-12-31T09:50:38.387Z,16.59
2022-12-31T09:53:27.417Z,16.69
2022-12-31T09:55:57.825Z,16.58
2022-12-31T09:58:39.178Z,16.47
2022-12-31T10:01:19.464Z,16.43
2022-12-31T10:04:06.062Z,16.41
2022-12-31T10:06:38.989Z,16.52
2022-12-31T10:09:18.422Z,16.38
2022-12-31T10:12:02.044Z,16.38
2022-12-31T10:14:47.223Z,16.40
2022-12-31T10:17:24.225Z,16.49
2022-12-31T10:20:10.014Z,16.60
2022-12-31T10:23:00.632Z,16.81
2022-12-31T10:25:37.905Z,16.80
2022-12-31T10:28:07.909Z,16.68
2022-12-31T10:30:36.626Z,16.74
2022-12-31T10:33:09.317Z,16.86
2022-12-31T10:35:42.011Z,16.82
2022-12-31T10:38:23.575Z,16.77
2022-12-31T10:41:25.608Z,16.76
2022-12-31T10:44:46.962Z,16.84
2022-12-31T10:48:00.347Z,16.89
2022-12-31T10:51:15.231Z,16.79
2022-12-31T10:53:56.008Z,16.67
2022-12-31T10:56:48.711Z,16.77
2022-12-31T10:59:30.531Z,16.79
2022-12-31T11:02:07.066Z,16.98
2022-12-31T11:05:24.963Z,16.97
2022-12-31T11:07:57.985Z,17.00
2022-12-31T11:10:49.759Z,17.01
2022-12-31T11:13:47.797Z,16.90
2022-12-31T11:16:30.289Z,16.96
2022-12-31T11:19:02.880Z,16.96
2022-12-31T11:26:03.014Z,17.06
2022-12-31T11:28:51.632Z,17.06
2022-12-31T11:31:33.963Z,17.03
2022-12-31T11:34:13.359Z,17.18
2022-12-31T11:36:46.109Z,17.34
2022-12-31T11:39:36.200Z,17.32
2022-12-31T11:42:13.613Z,17.24
2022-12-31T11:44:48.137Z,17.11
2022-12-31T11:47:25.268Z,17.24
2022-12-31T11:50:01.500Z,17.21
2022-12-31T11:52:44.574Z,17.40
2022-12-31T11:55:29.367Z,17.55
2022-12-31T11:58:00.435Z,17.71
2022-12-31T12:00:31.112Z,17.73
2022-12-31T12:03:00.643Z,17.43
2022-12-31T12:05:29.184Z,17.49
2022-12-31T12:07:57.226Z,17.57
2022-12-31T12:10:33.525Z,17.37
2022-12-31T12:13:12.098Z,17.54
2022-12-31T12:15:43.731Z,17.42
2022-12-31T12:18:19.426Z,17.42
2022-12-31T12:20:47.880Z,17.30
2022-12-31T12:23:18.149Z,17.41
2022-12-31T12:25:46.555Z,17.50
2022-12-31T12:28:24.608Z,17.44
2022-12-31T12:31:03.483Z,17.43
2022-12-31T12:33:41.489Z,17.64
2022-12-31T12:36:10.818Z,17.64
2022-12-31T12:38:38.743Z,17.44
2022-12-31T12:41:08.706Z,17.41
2022-12-31T12:43:37.405Z,17.38
2022-12-31T12:46:17.281Z,17.11
2022-12-31T12:48:47.758Z,16.88
2022-12-31T12:51:24.531Z,16.92
2022-12-31T12:53:58.752Z,16.85
2022-12-31T12:56:33.099Z,16.94
2022-12-31T12:59:17.271Z,17.10
2022-12-31T13:01:50.217Z,17.02
2022-12-31T13:04:38.975Z,17.22
2022-12-31T13:07:20.038Z,17.16
2022-12-31T13:09:58.013Z,17.21
2022-12-31T13:12:48.908Z,17.13
2022-12-31T13:15:23.231Z,17.19
2022-12-31T13:18:01.626Z,17.19
2022-12-31T13:20:35.535Z,17.26
2022-12-31T13:23:08.031Z,17.33
2022-12-31T13:25:40.427Z,17.36
2022-12-31T13:28:12.255Z,17.38
2022-12-31T13:30:41.678Z,17.32
2022-12-31T13:33:15.586Z,17.21
2022-12-31T13:35:46.517Z,17.18
2022-12-31T13:38:19.423Z,17.23
2022-12-31T13:40:50.771Z,17.15
2022-12-31T13:43:23.572Z,17.03
2022-12-31T13:46:00.344Z,17.03
2022-12-31T13:48:34.061Z,17.07
2022-12-31T13:51:04.467Z,16.99
2022-12-31T13:53:35.871Z,16.70
2022-12-31T13:56:06.602Z,16.37
2022-12-31T13:58:36.864Z,16.18
2022-12-31T14:01:11.991Z,16.07
2022-12-31T14:03:47.142Z,15.79
2022-12-31T14:06:20.022Z,15.74
2022-12-31T14:08:47.468Z,15.61
2022-12-31T14:11:22.046Z,15.54
2022-12-31T14:13:59.807Z,15.58
2022-12-31T14:16:34.779Z,15.48
2022-12-31T14:19:07.655Z,15.56
2022-12-31T14:21:40.728Z,15.58
2022-12-31T14:24:14.712Z,15.55
2022-12-31T14:26:45.176Z,15.46
2022-12-31T14:29:22.253Z,15.53
2022-12-31T14:32:32.609Z,15.51
2022-12-31T14:35:13.667Z,15.58
2022-12-31T14:37:47.982Z,15.50
2022-12-31T14:40:20.501Z,15.47
2022-12-31T14:42:56.796Z,15.30
2022-12-31T14:45:31.536Z,15.26
2022-12-31T14:48:03.018Z,15.23
2022-12-31T14:50:33.816Z,15.16
2022-12-31T14:53:09.388Z,15.28
2022-12-31T14:55:37.698Z,15.21
2022-12-31T14:58:29.392Z,15.30
2022-12-31T15:00:58.507Z,15.18
2022-12-31T15:03:34.164Z,15.06
2022-12-31T15:06:14.278Z,15.04
2022-12-31T15:08:50.555Z,15.01
2022-12-31T15:11:34.239Z,15.07
2022-12-31T15:14:24.432Z,15.07
2022-12-31T15:16:57.004Z,15.01
2022-12-31T15:19:57.874Z,15.05
2022-12-31T15:22:38.348Z,15.08
2022-12-31T15:25:21.184Z,15.09
2022-12-31T15:27:49.398Z,14.99
2022-12-31T15:30:34.063Z,15.10
2022-12-31T15:33:04.536Z,15.10
2022-12-31T15:35:34.890Z,15.17
2022-12-31T15:38:17.729Z,15.12
2022-12-31T15:40:46.507Z,15.10
2022-12-31T15:43:16.290Z,15.18
2022-12-31T15:45:44.167Z,15.13
2022-12-31T15:48:16.524Z,14.97
2022-12-31T15:50:44.252Z,15.06
2022-12-31T15:53:24.007Z,15.11
2022-12-31T15:55:53.976Z,15.12
2022-12-31T15:58:24.466Z,15.13
2022-12-31T16:00:59.305Z,15.13
2022-12-31T16:03:29.181Z,15.04
2022-12-31T16:06:01.826Z,14.94
2022-12-31T16:08:34.765Z,14.88
2022-12-31T16:11:05.213Z,14.91
2022-12-31T16:13:34.863Z,14.98
2022-12-31T16:16:05.070Z,14.85
2022-12-31T16:18:39.463Z,14.91
2022-12-31T16:21:07.419Z,15.02
2022-12-31T16:23:42.173Z,14.97
2022-12-31T16:26:11.161Z,15.16
2022-12-31T16:28:38.728Z,15.10
2022-12-31T16:31:08.261Z,15.08
2022-12-31T16:33:36.033Z,14.94
2022-12-31T16:36:05.057Z,14.89
2022-12-31T16:38:33.653Z,14.99
2022-12-31T16:41:17.484Z,14.90
2022-12-31T16:43:45.831Z,14.65
2022-12-31T16:46:18.541Z,14.68
2022-12-31T16:48:47.371Z,14.76
2022-12-31T16:51:19.528Z,14.52
2022-12-31T16:53:47.666Z,14.89
2022-12-31T16:56:24.835Z,15.01
2022-12-31T16:58:56.965Z,14.77
2022-12-31T17:01:26.900Z,14.61
2022-12-31T17:03:56.481Z,14.62
2022-12-31T17:06:24.150Z,14.76
2022-12-31T17:09:06.075Z,14.77
2022-12-31T17:11:39.073Z,14.73
2022-12-31T17:14:14.490Z,14.86
2022-12-31T17:16:59.548Z,14.95
2022-12-31T17:19:36.521Z,14.96
2022-12-31T17:22:04.602Z,14.76
2022-12-31T17:24:32.340Z,14.95
2022-12-31T17:27:06.840Z,15.10
2022-12-31T17:29:34.475Z,15.16
2022-12-31T17:32:04.543Z,15.28
2022-12-31T17:34:34.712Z,15.28
2022-12-31T17:37:17.710Z,15.15
2022-12-31T17:39:50.660Z,15.35
2022-12-31T17:42:30.224Z,15.48
2022-12-31T17:45:00.761Z,15.49
2022-12-31T17:47:34.682Z,15.50
2022-12-31T17:50:10.441Z,15.35
2022-12-31T17:52:37.930Z,15.29
2022-12-31T17:55:06.244Z,15.50
2022-12-31T17:57:36.094Z,15.52
2022-12-31T18:00:05.932Z,15.56
2022-12-31T18:02:40.048Z,15.61
2022-12-31T18:05:14.785Z,15.65
2022-12-31T18:07:42.197Z,15.53
2022-12-31T18:10:09.848Z,15.54
2022-12-31T18:12:38.654Z,15.58
2022-12-31T18:15:07.281Z,15.61
2022-12-31T18:17:35.573Z,15.66
2022-12-31T18:20:05.103Z,15.43
2022-12-31T18:22:33.414Z,15.60
2022-12-31T18:25:00.866Z,15.43
2022-12-31T18:27:31.350Z,15.54
2022-12-31T18:30:06.463Z,15.59
2022-12-31T18:32:36.073Z,15.48
2022-12-31T18:35:04.005Z,15.68
2022-12-31T18:37:37.594Z,15.72
2022-12-31T18:40:05.952Z,15.58
2022-12-31T18:42:33.521Z,15.54
2022-12-31T18:45:02.439Z,15.48
2022-12-31T18:47:35.803Z,15.58
2022-12-31T18:50:05.840Z,15.58
2022-12-31T18:52:33.424Z,15.50
2022-12-31T18:55:00.957Z,15.48
2022-12-31T18:57:30.535Z,15.29
2022-12-31T18:59:58.580Z,15.49
2022-12-31T19:02:27.501Z,15.60
2022-12-31T19:04:55.009Z,15.47
2022-12-31T19:07:22.463Z,15.43
2022-12-31T19:09:54.656Z,15.37
2022-12-31T19:12:24.437Z,15.40
2022-12-31T19:14:51.890Z,15.35
2022-12-31T19:17:21.362Z,15.46
2022-12-31T19:19:50.229Z,15.32
2022-12-31T19:22:17.736Z,15.37
2022-12-31T19:24:45.224Z,15.20
2022-12-31T19:27:16.913Z,15.17
2022-12-31T19:29:44.381Z,15.23
2022-12-31T19:32:11.993Z,15.21
2022-12-31T19:34:39.495Z,15.09
2022-12-31T19:37:08.307Z,15.30
2022-12-31T19:39:35.783Z,15.43
2022-12-31T19:42:03.207Z,15.49
2022-12-31T19:44:30.668Z,15.26
2022-12-31T19:46:58.192Z,15.32
2022-12-31T19:49:25.714Z,15.34
2022-12-31T19:51:53.155Z,15.22
2022-12-31T19:54:22.720Z,15.28
2022-12-31T19:56:50.199Z,15.09
2022-12-31T19:59:17.679Z,15.13
2022-12-31T20:01:45.205Z,15.21
2022-12-31T20:04:12.806Z,15.27
2022-12-31T20:06:40.216Z,15.23
2022-12-31T20:09:07.905Z,15.26
2022-12-31T20:11:36.691Z,15.38
2022-12-31T20:14:04.154Z,15.21
2022-12-31T20:16:33.625Z,15.11
2022-12-31T20:19:01.125Z,15.15
2022-12-31T20:21:30.014Z,15.23
2022-12-31T20:23:58.417Z,15.17
2022-12-31T20:26:26.387Z,15.15
2022-12-31T20:28:55.384Z,15.37
2022-12-31T20:31:25.587Z,15.42
2022-12-31T20:33:54.016Z,15.37
2022-12-31T20:36:21.552Z,15.07
2022-12-31T20:38:49.355Z,15.34
2022-12-31T20:41:18.430Z,15.18
2022-12-31T20:43:46.270Z,15.08
2022-12-31T20:46:17.922Z,15.02
2022-12-31T20:48:46.269Z,15.12
2022-12-31T20:51:14.923Z,15.21
2022-12-31T20:53:46.769Z,15.23
2022-12-31T20:56:14.464Z,15.16
2022-12-31T20:58:41.985Z,15.10
2022-12-31T21:01:10.792Z,15.23
2022-12-31T21:06:29.869Z,15.25
2022-12-31T21:08:58.957Z,15.20
2022-12-31T21:11:44.243Z,15.26
2022-12-31T21:14:11.758Z,15.40
2022-12-31T21:16:39.252Z,15.25
2022-12-31T21:19:08.189Z,15.37
2022-12-31T21:21:35.665Z,15.46
2022-12-31T21:24:03.348Z,15.52
2022-12-31T21:26:31.383Z,15.54
2022-12-31T21:28:59.220Z,15.42
2022-12-31T21:31:26.752Z,15.35
2022-12-31T21:33:54.353Z,15.28
2022-12-31T21:36:23.170Z,15.36
2022-12-31T21:38:50.658Z,15.40
2022-12-31T21:41:35.678Z,15.36
2022-12-31T21:44:03.456Z,15.39
2022-12-31T21:46:31.403Z,15.30
2022-12-31T21:49:00.463Z,15.42
2022-12-31T21:51:29.964Z,15.20
2022-12-31T21:53:57.833Z,15.15
2022-12-31T21:56:24.452Z,15.06
2022-12-31T21:59:08.665Z,15.11
2022-12-31T22:01:53.916Z,15.28
2022-12-31T22:04:59.913Z,15.25
2022-12-31T22:07:10.494Z,15.34
2022-12-31T22:09:37.993Z,15.20
2022-12-31T22:12:06.177Z,15.38
2022-12-31T22:14:33.666Z,15.42
2022-12-31T22:17:01.113Z,15.28
2022-12-31T22:19:28.605Z,15.26
2022-12-31T22:21:56.053Z,15.35
2022-12-31T22:24:24.820Z,15.33
2022-12-31T22:26:55.400Z,15.46
2022-12-31T22:29:23.515Z,15.41
2022-12-31T22:31:51.001Z,15.38
2022-12-31T22:34:18.723Z,15.47
2022-12-31T22:36:46.239Z,15.43
2022-12-31T22:39:43.847Z,15.41
2022-12-31T22:42:04.679Z,15.29
2022-12-31T22:44:32.231Z,15.33
2022-12-31T22:46:59.780Z,15.21
2022-12-31T22:49:27.473Z,15.33
2022-12-31T22:51:59.717Z,15.42
2022-12-31T22:54:29.330Z,15.62
2022-12-31T22:56:56.859Z,15.78
2022-12-31T22:59:25.758Z,15.59
2022-12-31T23:01:53.350Z,15.56
2022-12-31T23:04:20.975Z,15.72
2022-12-31T23:06:48.487Z,15.71
2022-12-31T23:09:35.119Z,15.67
2022-12-31T23:12:03.191Z,15.63
2022-12-31T23:14:49.806Z,15.53
2022-12-31T23:17:38.454Z,15.55
2022-12-31T23:20:24.723Z,15.70
2022-12-31T23:23:08.813Z,15.58
2022-12-31T23:25:37.773Z,15.60
2022-12-31T23:28:06.134Z,15.70
2022-12-31T23:30:35.076Z,15.69
2022-12-31T23:33:02.546Z,15.83
2022-12-31T23:35:30.041Z,15.77
2022-12-31T23:37:57.622Z,15.70
2022-12-31T23:40:33.996Z,15.75
2022-12-31T23:43:03.039Z,15.87
2022-12-31T23:45:33.321Z,15.59
2022-12-31T23:48:02.416Z,15.73
2022-12-31T23:50:30.064Z,15.70
2022-12-31T23:52:57.710Z,15.84
2022-12-31T23:55:25.256Z,15.73
2022-12-31T23:57:52.786Z,15.71
